Imperial, MO (63052)

1:06 AM CDT on September 05, 2015 (GMT -0500)
APRSWXNET | | Change Station
CLOSE
Current Station
Personal Weather Station
Location: Sulphur Springs, MO
Elevation: 455 ft
Nearby Weather Stations

Elev 455 ft 38.40 °N, 90.40 °W | Updated 28 minutes ago

Clear
Clear
72 °F
Feels Like 72 °F
N
0
Wind Variable Wind from South
Gusts 0.0 mph

Today
High -- | Low -- °F
--% Chance of Precip.
Yesterday
High -- | Low -- °F
Precip. -- in
6:34 AM 7:25 PM
Waning Gibbous, 52% visible
Pressure 30.03 in
Visibility 9.0 miles
Clouds Clear
Dew Point 70 °F
Humidity 95%
Rainfall in
Snow Depth Not available.
UV 0 out of 12
Pollen 11.10 out of 12
Air Quality Not available.
Flu Activity Not available.
METAR KCPS 050553Z AUTO 18003KT 9SM CLR 23/21 A3004 RMK AO2 SLP168 T02330211 10311 20233 403500206 51007
Pressure 30.03 in
Visibility 9.0 miles
Clouds Clear
Dew Point 70 °F
Humidity 95%
Rainfall in
Snow Depth Not available.
UV 0 out of 12
Pollen 11.10 out of 12
Air Quality Not available.
Flu Activity Not available.
METAR KCPS 050553Z AUTO 18003KT 9SM CLR 23/21 A3004 RMK AO2 SLP168 T02330211 10311 20233 403500206 51007

10-Day Weather Forecast

×

Almanac

Astronomy

Sep. 05, 2015 Rise Set
Actual Time
Civil Twilight
Nautical Twilight
Astronomical Twilight
Moon
Length of Visible Light
Length of Day
Tomorrow will be .
, % of the Moon is Illuminated

Today's Extremes

State Highs State Lows

Community

WunderPhotos

Upload Photos

1,852,431 photos uploaded!

WunderBlogs® & News

Nearby

Air Quality

  Air Quality AQ Index Pollutant
Not available.

Snow Depth

Station Depth Elevation

Earthquake Activity

City Distance Mag. Time & Date
Minimum magnitude displayed is 2.5.

Coastal Water Temperatures

Place Temperature

Stations

Nearby Weather Stations

Station Location Temp. Windchill Dew Point Humidity Wind Precip. Elev Updated Type